sensor_id;sensor_type;location;lat;lon;timestamp;pressure;altitude;pressure_sealevel;temperature;humidity
13867;BME280;7003;46.982;15.248;2023-05-28T00:01:21;97454.50;;;11.96;100.00
13867;BME280;7003;46.982;15.248;2023-05-28T00:03:50;97447.56;;;11.83;100.00
13867;BME280;7003;46.982;15.248;2023-05-28T00:06:19;97443.38;;;11.73;100.00
13867;BME280;7003;46.982;15.248;2023-05-28T00:08:46;97439.97;;;11.64;100.00
13867;BME280;7003;46.982;15.248;2023-05-28T00:11:13;97448.69;;;11.73;100.00
13867;BME280;7003;46.982;15.248;2023-05-28T00:13:43;97439.88;;;11.61;100.00
13867;BME280;7003;46.982;15.248;2023-05-28T00:16:12;97431.25;;;11.55;100.00
13867;BME280;7003;46.982;15.248;2023-05-28T00:18:40;97430.88;;;11.65;100.00
13867;BME280;7003;46.982;15.248;2023-05-28T00:21:11;97422.13;;;11.85;100.00
13867;BME280;7003;46.982;15.248;2023-05-28T00:23:40;97421.91;;;11.49;100.00
13867;BME280;7003;46.982;15.248;2023-05-28T00:26:07;97419.97;;;11.58;100.00
13867;BME280;7003;46.982;15.248;2023-05-28T00:28:37;97430.63;;;11.58;100.00
13867;BME280;7003;46.982;15.248;2023-05-28T00:31:04;97422.69;;;11.49;100.00
13867;BME280;7003;46.982;15.248;2023-05-28T00:33:31;97417.16;;;11.54;100.00
13867;BME280;7003;46.982;15.248;2023-05-28T00:36:00;97421.06;;;11.57;100.00
13867;BME280;7003;46.982;15.248;2023-05-28T00:38:31;97416.31;;;11.63;100.00
13867;BME280;7003;46.982;15.248;2023-05-28T00:40:58;97416.47;;;11.66;100.00
13867;BME280;7003;46.982;15.248;2023-05-28T00:43:25;97421.59;;;11.71;100.00
13867;BME280;7003;46.982;15.248;2023-05-28T00:45:56;97417.00;;;11.80;100.00
13867;BME280;7003;46.982;15.248;2023-05-28T00:48:24;97421.56;;;11.80;100.00
13867;BME280;7003;46.982;15.248;2023-05-28T00:50:53;97413.44;;;11.47;100.00
13867;BME280;7003;46.982;15.248;2023-05-28T00:53:21;97410.63;;;11.52;100.00
13867;BME280;7003;46.982;15.248;2023-05-28T00:55:53;97407.06;;;11.39;100.00
13867;BME280;7003;46.982;15.248;2023-05-28T00:58:21;97401.81;;;11.31;100.00
13867;BME280;7003;46.982;15.248;2023-05-28T01:00:51;97403.03;;;11.12;100.00
13867;BME280;7003;46.982;15.248;2023-05-28T01:03:24;97396.50;;;11.01;100.00
13867;BME280;7003;46.982;15.248;2023-05-28T01:05:55;97387.75;;;10.92;100.00
13867;BME280;7003;46.982;15.248;2023-05-28T01:08:27;97388.16;;;10.82;100.00
13867;BME280;7003;46.982;15.248;2023-05-28T01:10:57;97391.63;;;10.74;100.00
13867;BME280;7003;46.982;15.248;2023-05-28T01:13:24;97381.47;;;10.67;100.00
13867;BME280;7003;46.982;15.248;2023-05-28T01:15:52;97380.69;;;10.67;100.00
13867;BME280;7003;46.982;15.248;2023-05-28T01:18:21;97385.19;;;10.75;100.00
13867;BME280;7003;46.982;15.248;2023-05-28T01:20:48;97375.28;;;10.84;100.00
13867;BME280;7003;46.982;15.248;2023-05-28T01:23:19;97382.50;;;10.84;100.00
13867;BME280;7003;46.982;15.248;2023-05-28T01:25:52;97379.50;;;10.85;100.00
13867;BME280;7003;46.982;15.248;2023-05-28T01:28:21;97375.38;;;10.96;100.00
13867;BME280;7003;46.982;15.248;2023-05-28T01:30:51;97379.69;;;10.80;100.00
13867;BME280;7003;46.982;15.248;2023-05-28T01:33:19;97370.94;;;10.79;100.00
13867;BME280;7003;46.982;15.248;2023-05-28T01:35:51;97368.22;;;10.88;100.00
13867;BME280;7003;46.982;15.248;2023-05-28T01:38:23;97369.88;;;11.01;100.00
13867;BME280;7003;46.982;15.248;2023-05-28T01:40:53;97361.31;;;11.16;100.00
13867;BME280;7003;46.982;15.248;2023-05-28T01:43:23;97369.31;;;10.87;100.00
13867;BME280;7003;46.982;15.248;2023-05-28T01:45:51;97365.41;;;10.85;100.00
13867;BME280;7003;46.982;15.248;2023-05-28T01:48:18;97363.22;;;10.87;100.00
13867;BME280;7003;46.982;15.248;2023-05-28T01:50:46;97356.34;;;10.86;100.00
13867;BME280;7003;46.982;15.248;2023-05-28T01:53:15;97355.72;;;10.89;100.00
13867;BME280;7003;46.982;15.248;2023-05-28T01:55:45;97354.63;;;10.90;100.00
13867;BME280;7003;46.982;15.248;2023-05-28T01:58:13;97351.44;;;10.96;100.00
13867;BME280;7003;46.982;15.248;2023-05-28T02:00:47;97341.97;;;10.78;100.00
13867;BME280;7003;46.982;15.248;2023-05-28T02:03:17;97350.63;;;10.75;100.00
13867;BME280;7003;46.982;15.248;2023-05-28T02:05:44;97342.94;;;10.73;100.00
13867;BME280;7003;46.982;15.248;2023-05-28T02:08:14;97346.00;;;10.55;100.00
13867;BME280;7003;46.982;15.248;2023-05-28T02:10:42;97344.16;;;10.47;100.00
13867;BME280;7003;46.982;15.248;2023-05-28T02:13:09;97347.31;;;10.40;100.00
13867;BME280;7003;46.982;15.248;2023-05-28T02:15:38;97335.47;;;10.12;100.00
13867;BME280;7003;46.982;15.248;2023-05-28T02:18:06;97338.25;;;10.32;100.00
13867;BME280;7003;46.982;15.248;2023-05-28T02:20:39;97345.09;;;10.51;100.00
13867;BME280;7003;46.982;15.248;2023-05-28T02:23:09;97340.44;;;10.30;100.00
13867;BME280;7003;46.982;15.248;2023-05-28T02:25:36;97337.19;;;10.25;100.00
13867;BME280;7003;46.982;15.248;2023-05-28T02:28:04;97342.66;;;10.28;100.00
13867;BME280;7003;46.982;15.248;2023-05-28T02:30:34;97344.25;;;10.21;100.00
13867;BME280;7003;46.982;15.248;2023-05-28T02:33:02;97349.06;;;10.27;100.00
13867;BME280;7003;46.982;15.248;2023-05-28T02:35:31;97347.03;;;10.24;100.00
13867;BME280;7003;46.982;15.248;2023-05-28T02:38:00;97344.88;;;10.18;100.00
13867;BME280;7003;46.982;15.248;2023-05-28T02:40:31;97341.59;;;10.12;100.00
13867;BME280;7003;46.982;15.248;2023-05-28T02:42:58;97343.47;;;9.94;100.00
13867;BME280;7003;46.982;15.248;2023-05-28T02:45:28;97344.88;;;9.92;100.00
13867;BME280;7003;46.982;15.248;2023-05-28T02:47:55;97345.53;;;9.80;100.00
13867;BME280;7003;46.982;15.248;2023-05-28T02:50:26;97339.94;;;9.64;100.00
13867;BME280;7003;46.982;15.248;2023-05-28T02:52:56;97349.00;;;9.63;100.00
13867;BME280;7003;46.982;15.248;2023-05-28T02:55:23;97347.41;;;9.62;100.00
13867;BME280;7003;46.982;15.248;2023-05-28T02:57:51;97353.50;;;9.54;100.00
13867;BME280;7003;46.982;15.248;2023-05-28T03:00:19;97351.31;;;9.39;100.00
13867;BME280;7003;46.982;15.248;2023-05-28T03:02:47;97341.66;;;9.35;100.00
13867;BME280;7003;46.982;15.248;2023-05-28T03:05:15;97338.22;;;9.43;100.00
13867;BME280;7003;46.982;15.248;2023-05-28T03:07:48;97341.19;;;9.41;100.00
13867;BME280;7003;46.982;15.248;2023-05-28T03:10:16;97335.88;;;9.41;100.00
13867;BME280;7003;46.982;15.248;2023-05-28T03:12:46;97345.88;;;9.44;100.00
13867;BME280;7003;46.982;15.248;2023-05-28T03:15:17;97333.66;;;9.09;100.00
13867;BME280;7003;46.982;15.248;2023-05-28T03:17:45;97332.13;;;9.25;100.00
13867;BME280;7003;46.982;15.248;2023-05-28T03:20:15;97332.13;;;9.42;100.00
13867;BME280;7003;46.982;15.248;2023-05-28T03:22:48;97324.00;;;9.64;100.00
13867;BME280;7003;46.982;15.248;2023-05-28T03:25:19;97329.13;;;9.61;100.00
13867;BME280;7003;46.982;15.248;2023-05-28T03:27:47;97335.88;;;9.58;100.00
13867;BME280;7003;46.982;15.248;2023-05-28T03:30:15;97329.78;;;9.67;100.00
13867;BME280;7003;46.982;15.248;2023-05-28T03:32:45;97337.28;;;9.73;100.00
13867;BME280;7003;46.982;15.248;2023-05-28T03:35:14;97343.38;;;9.74;100.00
13867;BME280;7003;46.982;15.248;2023-05-28T03:37:43;97341.50;;;9.83;100.00
13867;BME280;7003;46.982;15.248;2023-05-28T03:40:13;97349.47;;;9.83;100.00
13867;BME280;7003;46.982;15.248;2023-05-28T03:42:41;97350.84;;;9.89;100.00
13867;BME280;7003;46.982;15.248;2023-05-28T03:45:09;97353.50;;;9.89;100.00
13867;BME280;7003;46.982;15.248;2023-05-28T03:47:37;97344.56;;;9.93;100.00
13867;BME280;7003;46.982;15.248;2023-05-28T03:50:06;97341.50;;;9.83;100.00
13867;BME280;7003;46.982;15.248;2023-05-28T03:52:34;97345.53;;;9.72;100.00
13867;BME280;7003;46.982;15.248;2023-05-28T03:55:02;97341.31;;;9.53;100.00
13867;BME280;7003;46.982;15.248;2023-05-28T03:57:34;97340.09;;;9.51;100.00
13867;BME280;7003;46.982;15.248;2023-05-28T04:00:03;97346.03;;;9.65;100.00
13867;BME280;7003;46.982;15.248;2023-05-28T04:02:33;97338.38;;;9.63;100.00
13867;BME280;7003;46.982;15.248;2023-05-28T04:05:04;97350.84;;;9.54;100.00
13867;BME280;7003;46.982;15.248;2023-05-28T04:07:33;97346.03;;;9.56;100.00
13867;BME280;7003;46.982;15.248;2023-05-28T04:10:01;97347.91;;;9.73;100.00
13867;BME280;7003;46.982;15.248;2023-05-28T04:12:30;97342.56;;;9.82;100.00
13867;BME280;7003;46.982;15.248;2023-05-28T04:15:04;97346.75;;;9.91;100.00
13867;BME280;7003;46.982;15.248;2023-05-28T04:17:33;97341.00;;;9.89;100.00
13867;BME280;7003;46.982;15.248;2023-05-28T04:20:04;97349.41;;;10.00;100.00
13867;BME280;7003;46.982;15.248;2023-05-28T04:22:33;97338.75;;;10.26;100.00
13867;BME280;7003;46.982;15.248;2023-05-28T04:25:03;97342.13;;;10.44;100.00
13867;BME280;7003;46.982;15.248;2023-05-28T04:27:32;97349.63;;;10.50;100.00
13867;BME280;7003;46.982;15.248;2023-05-28T04:30:06;97344.00;;;10.52;100.00
13867;BME280;7003;46.982;15.248;2023-05-28T04:32:37;97345.34;;;10.66;100.00
13867;BME280;7003;46.982;15.248;2023-05-28T04:35:05;97351.59;;;10.62;100.00
13867;BME280;7003;46.982;15.248;2023-05-28T04:37:37;97354.53;;;10.69;100.00
13867;BME280;7003;46.982;15.248;2023-05-28T04:40:07;97356.81;;;10.88;100.00
13867;BME280;7003;46.982;15.248;2023-05-28T04:42:37;97355.66;;;10.97;100.00
13867;BME280;7003;46.982;15.248;2023-05-28T04:45:09;97350.09;;;11.11;100.00
13867;BME280;7003;46.982;15.248;2023-05-28T04:47:39;97348.06;;;11.37;100.00
13867;BME280;7003;46.982;15.248;2023-05-28T04:50:08;97353.63;;;11.65;100.00
13867;BME280;7003;46.982;15.248;2023-05-28T04:52:36;97344.44;;;11.95;100.00
13867;BME280;7003;46.982;15.248;2023-05-28T04:55:07;97342.72;;;12.12;100.00
13867;BME280;7003;46.982;15.248;2023-05-28T04:57:36;97341.66;;;12.49;100.00
13867;BME280;7003;46.982;15.248;2023-05-28T05:00:05;97350.22;;;12.55;100.00
13867;BME280;7003;46.982;15.248;2023-05-28T05:02:41;97350.13;;;12.63;100.00
13867;BME280;7003;46.982;15.248;2023-05-28T05:05:09;97348.69;;;12.78;100.00
13867;BME280;7003;46.982;15.248;2023-05-28T05:07:38;97349.25;;;12.71;100.00
13867;BME280;7003;46.982;15.248;2023-05-28T05:10:07;97353.03;;;12.95;100.00
13867;BME280;7003;46.982;15.248;2023-05-28T05:12:36;97355.00;;;13.34;100.00
13867;BME280;7003;46.982;15.248;2023-05-28T05:15:05;97356.50;;;13.60;100.00
13867;BME280;7003;46.982;15.248;2023-05-28T05:17:34;97348.03;;;13.58;100.00
13867;BME280;7003;46.982;15.248;2023-05-28T05:20:08;97351.16;;;13.60;100.00
13867;BME280;7003;46.982;15.248;2023-05-28T05:22:36;97355.31;;;13.85;100.00
13867;BME280;7003;46.982;15.248;2023-05-28T05:25:05;97361.59;;;14.20;100.00
13867;BME280;7003;46.982;15.248;2023-05-28T05:27:36;97360.00;;;14.32;100.00
13867;BME280;7003;46.982;15.248;2023-05-28T05:30:07;97354.63;;;14.32;100.00
13867;BME280;7003;46.982;15.248;2023-05-28T05:32:35;97354.47;;;14.24;100.00
13867;BME280;7003;46.982;15.248;2023-05-28T05:35:08;97357.72;;;14.34;100.00
13867;BME280;7003;46.982;15.248;2023-05-28T05:37:40;97356.59;;;14.78;100.00
13867;BME280;7003;46.982;15.248;2023-05-28T05:40:11;97357.09;;;14.84;100.00
13867;BME280;7003;46.982;15.248;2023-05-28T05:42:40;97361.72;;;15.02;100.00
13867;BME280;7003;46.982;15.248;2023-05-28T05:45:08;97365.34;;;14.94;100.00
13867;BME280;7003;46.982;15.248;2023-05-28T05:47:37;97359.50;;;14.73;100.00
13867;BME280;7003;46.982;15.248;2023-05-28T05:50:07;97357.16;;;14.87;100.00
13867;BME280;7003;46.982;15.248;2023-05-28T05:52:35;97360.03;;;15.29;100.00
13867;BME280;7003;46.982;15.248;2023-05-28T05:55:03;97363.47;;;15.65;100.00
13867;BME280;7003;46.982;15.248;2023-05-28T05:57:34;97350.09;;;15.84;100.00
13867;BME280;7003;46.982;15.248;2023-05-28T06:00:07;97355.31;;;15.77;100.00
13867;BME280;7003;46.982;15.248;2023-05-28T06:02:37;97358.91;;;15.85;100.00
13867;BME280;7003;46.982;15.248;2023-05-28T06:05:07;97355.72;;;16.17;100.00
13867;BME280;7003;46.982;15.248;2023-05-28T06:07:37;97351.28;;;16.29;100.00
13867;BME280;7003;46.982;15.248;2023-05-28T06:10:09;97347.69;;;16.40;100.00
13867;BME280;7003;46.982;15.248;2023-05-28T06:12:38;97350.72;;;16.39;100.00
13867;BME280;7003;46.982;15.248;2023-05-28T06:15:07;97344.25;;;16.43;100.00
13867;BME280;7003;46.982;15.248;2023-05-28T06:17:38;97339.84;;;16.32;100.00
13867;BME280;7003;46.982;15.248;2023-05-28T06:20:11;97345.50;;;16.69;100.00
13867;BME280;7003;46.982;15.248;2023-05-28T06:22:40;97339.63;;;17.12;100.00
13867;BME280;7003;46.982;15.248;2023-05-28T06:25:08;97336.75;;;17.54;100.00
13867;BME280;7003;46.982;15.248;2023-05-28T06:27:39;97348.03;;;17.63;100.00
13867;BME280;7003;46.982;15.248;2023-05-28T06:30:10;97349.59;;;17.68;100.00
13867;BME280;7003;46.982;15.248;2023-05-28T06:32:38;97347.25;;;17.96;100.00
13867;BME280;7003;46.982;15.248;2023-05-28T06:35:07;97349.34;;;18.14;100.00
13867;BME280;7003;46.982;15.248;2023-05-28T06:37:39;97355.84;;;18.46;100.00
13867;BME280;7003;46.982;15.248;2023-05-28T06:40:08;97350.66;;;18.64;100.00
13867;BME280;7003;46.982;15.248;2023-05-28T06:42:40;97356.88;;;18.75;100.00
13867;BME280;7003;46.982;15.248;2023-05-28T06:45:11;97351.00;;;19.10;100.00
13867;BME280;7003;46.982;15.248;2023-05-28T06:47:40;97353.69;;;19.13;100.00
13867;BME280;7003;46.982;15.248;2023-05-28T06:50:09;97357.69;;;19.37;95.89
13867;BME280;7003;46.982;15.248;2023-05-28T06:52:42;97350.50;;;19.55;93.07
13867;BME280;7003;46.982;15.248;2023-05-28T06:55:13;97356.03;;;19.84;97.07
13867;BME280;7003;46.982;15.248;2023-05-28T06:57:41;97343.69;;;19.90;93.50
13867;BME280;7003;46.982;15.248;2023-05-28T07:00:11;97352.22;;;19.99;88.67
13867;BME280;7003;46.982;15.248;2023-05-28T07:02:44;97348.41;;;20.11;87.38
13867;BME280;7003;46.982;15.248;2023-05-28T07:05:15;97349.16;;;20.15;76.24
13867;BME280;7003;46.982;15.248;2023-05-28T07:07:48;97351.84;;;20.08;80.15
13867;BME280;7003;46.982;15.248;2023-05-28T07:10:16;97346.09;;;20.23;83.91
13867;BME280;7003;46.982;15.248;2023-05-28T07:12:46;97348.09;;;20.33;79.80
13867;BME280;7003;46.982;15.248;2023-05-28T07:15:15;97348.09;;;20.37;76.04
13867;BME280;7003;46.982;15.248;2023-05-28T07:17:43;97346.97;;;20.63;78.32
13867;BME280;7003;46.982;15.248;2023-05-28T07:20:11;97341.19;;;20.71;73.51
13867;BME280;7003;46.982;15.248;2023-05-28T07:22:39;97342.72;;;20.72;71.15
13867;BME280;7003;46.982;15.248;2023-05-28T07:25:11;97343.09;;;20.99;70.89
13867;BME280;7003;46.982;15.248;2023-05-28T07:27:39;97337.28;;;21.11;70.10
13867;BME280;7003;46.982;15.248;2023-05-28T07:30:08;97333.78;;;21.14;70.04
13867;BME280;7003;46.982;15.248;2023-05-28T07:32:36;97324.50;;;21.30;70.97
13867;BME280;7003;46.982;15.248;2023-05-28T07:35:04;97331.44;;;21.38;67.35
13867;BME280;7003;46.982;15.248;2023-05-28T07:37:35;97337.69;;;21.13;68.09
13867;BME280;7003;46.982;15.248;2023-05-28T07:40:07;97325.25;;;21.37;68.60
13867;BME280;7003;46.982;15.248;2023-05-28T07:42:41;97327.13;;;21.65;67.02
13867;BME280;7003;46.982;15.248;2023-05-28T07:45:11;97333.59;;;21.85;67.08
13867;BME280;7003;46.982;15.248;2023-05-28T07:47:40;97328.22;;;21.82;66.72
13867;BME280;7003;46.982;15.248;2023-05-28T07:50:08;97324.00;;;21.70;68.93
13867;BME280;7003;46.982;15.248;2023-05-28T07:52:40;97326.09;;;21.27;63.28
13867;BME280;7003;46.982;15.248;2023-05-28T07:55:09;97325.31;;;21.02;67.65
13867;BME280;7003;46.982;15.248;2023-05-28T07:57:37;97321.31;;;21.63;68.51
13867;BME280;7003;46.982;15.248;2023-05-28T08:00:09;97316.81;;;21.18;59.04
13867;BME280;7003;46.982;15.248;2023-05-28T08:02:44;97316.69;;;21.67;64.37
13867;BME280;7003;46.982;15.248;2023-05-28T08:05:11;97311.44;;;22.12;63.83
13867;BME280;7003;46.982;15.248;2023-05-28T08:07:40;97311.69;;;22.35;61.75
13867;BME280;7003;46.982;15.248;2023-05-28T08:10:09;97306.38;;;22.69;61.55
13867;BME280;7003;46.982;15.248;2023-05-28T08:12:39;97312.56;;;22.21;59.06
13867;BME280;7003;46.982;15.248;2023-05-28T08:15:11;97317.53;;;22.26;61.94
13867;BME280;7003;46.982;15.248;2023-05-28T08:17:41;97307.78;;;22.40;55.34
13867;BME280;7003;46.982;15.248;2023-05-28T08:20:11;97308.09;;;22.97;59.50
13867;BME280;7003;46.982;15.248;2023-05-28T08:22:38;97311.19;;;22.99;57.25
13867;BME280;7003;46.982;15.248;2023-05-28T08:25:09;97303.72;;;23.10;53.13
13867;BME280;7003;46.982;15.248;2023-05-28T08:27:36;97304.84;;;22.68;56.66
13867;BME280;7003;46.982;15.248;2023-05-28T08:30:04;97310.50;;;22.91;52.11
13867;BME280;7003;46.982;15.248;2023-05-28T08:32:36;97301.75;;;22.66;54.54
13867;BME280;7003;46.982;15.248;2023-05-28T08:35:04;97294.50;;;23.00;52.71
13867;BME280;7003;46.982;15.248;2023-05-28T08:37:35;97297.53;;;23.44;51.53
13867;BME280;7003;46.982;15.248;2023-05-28T08:40:02;97301.69;;;22.73;53.74
13867;BME280;7003;46.982;15.248;2023-05-28T08:42:36;97294.94;;;22.95;57.21
13867;BME280;7003;46.982;15.248;2023-05-28T08:45:07;97286.41;;;23.31;55.22
13867;BME280;7003;46.982;15.248;2023-05-28T08:47:39;97293.19;;;23.16;50.42
13867;BME280;7003;46.982;15.248;2023-05-28T08:50:07;97287.41;;;23.14;48.52
13867;BME280;7003;46.982;15.248;2023-05-28T08:52:35;97283.44;;;23.56;50.68
13867;BME280;7003;46.982;15.248;2023-05-28T08:55:03;97287.44;;;23.44;52.60
13867;BME280;7003;46.982;15.248;2023-05-28T08:57:31;97289.00;;;23.45;51.34
13867;BME280;7003;46.982;15.248;2023-05-28T09:00:02;97289.19;;;22.42;53.68
13867;BME280;7003;46.982;15.248;2023-05-28T09:02:34;97288.06;;;22.36;54.06
13867;BME280;7003;46.982;15.248;2023-05-28T09:05:06;97277.94;;;21.77;55.44
13867;BME280;7003;46.982;15.248;2023-05-28T09:07:36;97283.59;;;21.03;51.47
13867;BME280;7003;46.982;15.248;2023-05-28T09:10:04;97278.78;;;21.64;60.00
13867;BME280;7003;46.982;15.248;2023-05-28T09:12:32;97283.63;;;22.59;54.87
13867;BME280;7003;46.982;15.248;2023-05-28T09:14:59;97275.69;;;22.35;56.90
13867;BME280;7003;46.982;15.248;2023-05-28T09:17:33;97271.78;;;22.87;52.97
13867;BME280;7003;46.982;15.248;2023-05-28T09:20:10;97271.75;;;22.91;52.65
13867;BME280;7003;46.982;15.248;2023-05-28T09:22:38;97270.34;;;21.51;49.44
13867;BME280;7003;46.982;15.248;2023-05-28T09:25:09;97268.16;;;21.03;58.59
13867;BME280;7003;46.982;15.248;2023-05-28T09:27:43;97267.75;;;22.06;57.64
13867;BME280;7003;46.982;15.248;2023-05-28T09:30:11;97263.81;;;22.66;57.19
13867;BME280;7003;46.982;15.248;2023-05-28T09:32:40;97255.31;;;23.39;56.19
13867;BME280;7003;46.982;15.248;2023-05-28T09:35:08;97256.25;;;23.90;53.01
13867;BME280;7003;46.982;15.248;2023-05-28T09:37:38;97262.81;;;24.46;51.42
13867;BME280;7003;46.982;15.248;2023-05-28T09:40:07;97261.84;;;24.06;50.29
13867;BME280;7003;46.982;15.248;2023-05-28T09:42:40;97254.44;;;24.33;48.49
13867;BME280;7003;46.982;15.248;2023-05-28T09:45:09;97252.47;;;23.53;47.44
13867;BME280;7003;46.982;15.248;2023-05-28T09:47:43;97251.28;;;24.11;46.20
13867;BME280;7003;46.982;15.248;2023-05-28T09:50:11;97250.88;;;22.84;50.25
13867;BME280;7003;46.982;15.248;2023-05-28T09:52:43;97243.81;;;22.94;49.11
13867;BME280;7003;46.982;15.248;2023-05-28T09:55:14;97243.34;;;23.36;47.14
13867;BME280;7003;46.982;15.248;2023-05-28T09:57:45;97237.97;;;22.99;47.99
13867;BME280;7003;46.982;15.248;2023-05-28T10:00:20;97240.47;;;22.31;48.04
13867;BME280;7003;46.982;15.248;2023-05-28T10:02:57;97238.13;;;23.53;50.06
13867;BME280;7003;46.982;15.248;2023-05-28T10:05:28;97245.34;;;23.63;54.22
13867;BME280;7003;46.982;15.248;2023-05-28T10:08:00;97232.41;;;22.24;50.19
13867;BME280;7003;46.982;15.248;2023-05-28T10:10:29;97235.16;;;23.06;56.26
13867;BME280;7003;46.982;15.248;2023-05-28T10:12:57;97228.91;;;24.00;49.08
13867;BME280;7003;46.982;15.248;2023-05-28T10:15:25;97224.53;;;24.57;46.84
13867;BME280;7003;46.982;15.248;2023-05-28T10:17:54;97219.38;;;24.85;47.00
13867;BME280;7003;46.982;15.248;2023-05-28T10:20:22;97231.84;;;24.13;45.46
13867;BME280;7003;46.982;15.248;2023-05-28T10:22:50;97222.28;;;24.01;50.47
13867;BME280;7003;46.982;15.248;2023-05-28T10:25:20;97227.16;;;24.40;52.34
13867;BME280;7003;46.982;15.248;2023-05-28T10:27:57;97221.72;;;25.26;45.19
13867;BME280;7003;46.982;15.248;2023-05-28T10:30:33;97215.22;;;25.40;41.67
13867;BME280;7003;46.982;15.248;2023-05-28T10:33:04;97215.03;;;24.68;41.29
13867;BME280;7003;46.982;15.248;2023-05-28T10:35:35;97212.38;;;24.41;44.09
13867;BME280;7003;46.982;15.248;2023-05-28T10:38:18;97210.44;;;25.08;45.83
13867;BME280;7003;46.982;15.248;2023-05-28T10:40:49;97204.66;;;25.42;42.44
13867;BME280;7003;46.982;15.248;2023-05-28T10:43:41;97207.34;;;25.82;43.18
13867;BME280;7003;46.982;15.248;2023-05-28T10:46:12;97198.34;;;26.01;45.86
13867;BME280;7003;46.982;15.248;2023-05-28T10:48:39;97195.19;;;25.11;44.36
13867;BME280;7003;46.982;15.248;2023-05-28T10:51:08;97197.72;;;24.59;44.51
13867;BME280;7003;46.982;15.248;2023-05-28T10:53:39;97204.56;;;24.86;46.21
13867;BME280;7003;46.982;15.248;2023-05-28T10:56:10;97212.84;;;23.56;45.79
13867;BME280;7003;46.982;15.248;2023-05-28T10:58:42;97201.19;;;23.59;50.02
13867;BME280;7003;46.982;15.248;2023-05-28T11:01:19;97201.56;;;24.61;48.05
13867;BME280;7003;46.982;15.248;2023-05-28T11:03:52;97212.81;;;24.83;48.86
13867;BME280;7003;46.982;15.248;2023-05-28T11:06:19;97193.47;;;24.34;44.87
13867;BME280;7003;46.982;15.248;2023-05-28T11:08:48;97198.75;;;24.45;49.22
13867;BME280;7003;46.982;15.248;2023-05-28T11:11:18;97196.84;;;25.44;45.93
13867;BME280;7003;46.982;15.248;2023-05-28T11:13:49;97201.13;;;25.45;46.27
13867;BME280;7003;46.982;15.248;2023-05-28T11:16:19;97200.03;;;24.60;49.47
13867;BME280;7003;46.982;15.248;2023-05-28T11:18:59;97199.66;;;24.58;45.13
13867;BME280;7003;46.982;15.248;2023-05-28T11:21:27;97187.81;;;25.31;47.22
13867;BME280;7003;46.982;15.248;2023-05-28T11:24:01;97195.84;;;24.05;51.29
13867;BME280;7003;46.982;15.248;2023-05-28T11:26:30;97193.06;;;24.79;45.43
13867;BME280;7003;46.982;15.248;2023-05-28T11:29:01;97185.06;;;24.48;42.99
13867;BME280;7003;46.982;15.248;2023-05-28T11:31:37;97191.13;;;24.79;46.73
13867;BME280;7003;46.982;15.248;2023-05-28T11:34:07;97177.41;;;25.26;46.48
13867;BME280;7003;46.982;15.248;2023-05-28T11:36:38;97182.16;;;25.02;42.43
13867;BME280;7003;46.982;15.248;2023-05-28T11:39:09;97191.13;;;24.79;47.44
13867;BME280;7003;46.982;15.248;2023-05-28T11:41:38;97181.25;;;24.66;45.58
13867;BME280;7003;46.982;15.248;2023-05-28T11:44:18;97176.53;;;24.89;47.17
13867;BME280;7003;46.982;15.248;2023-05-28T11:46:54;97175.56;;;24.60;48.13
13867;BME280;7003;46.982;15.248;2023-05-28T11:49:25;97172.00;;;24.40;53.63
13867;BME280;7003;46.982;15.248;2023-05-28T11:51:57;97168.13;;;25.04;46.02
13867;BME280;7003;46.982;15.248;2023-05-28T11:54:26;97174.56;;;25.49;44.93
13867;BME280;7003;46.982;15.248;2023-05-28T11:57:02;97170.13;;;25.39;44.49
13867;BME280;7003;46.982;15.248;2023-05-28T11:59:30;97166.50;;;25.46;48.08
13867;BME280;7003;46.982;15.248;2023-05-28T12:02:12;97168.69;;;24.95;47.72
13867;BME280;7003;46.982;15.248;2023-05-28T12:04:53;97161.47;;;25.44;44.79
13867;BME280;7003;46.982;15.248;2023-05-28T12:07:22;97158.53;;;25.71;42.33
13867;BME280;7003;46.982;15.248;2023-05-28T12:10:06;97160.44;;;26.06;42.91
13867;BME280;7003;46.982;15.248;2023-05-28T12:12:39;97164.88;;;24.92;42.02
13867;BME280;7003;46.982;15.248;2023-05-28T12:15:10;97157.00;;;25.34;46.28
13867;BME280;7003;46.982;15.248;2023-05-28T12:17:38;97152.75;;;26.18;47.22
13867;BME280;7003;46.982;15.248;2023-05-28T12:20:27;97153.00;;;26.56;39.99
13867;BME280;7003;46.982;15.248;2023-05-28T12:23:01;97154.59;;;25.20;40.55
13867;BME280;7003;46.982;15.248;2023-05-28T12:25:46;97153.38;;;25.93;41.32
13867;BME280;7003;46.982;15.248;2023-05-28T12:28:16;97146.56;;;25.85;41.30
13867;BME280;7003;46.982;15.248;2023-05-28T12:30:49;97143.94;;;25.45;45.21
13867;BME280;7003;46.982;15.248;2023-05-28T12:33:18;97145.88;;;25.81;45.68
13867;BME280;7003;46.982;15.248;2023-05-28T12:35:46;97142.41;;;24.65;41.61
13867;BME280;7003;46.982;15.248;2023-05-28T12:38:13;97143.44;;;25.14;47.95
13867;BME280;7003;46.982;15.248;2023-05-28T12:40:44;97141.00;;;25.72;45.68
13867;BME280;7003;46.982;15.248;2023-05-28T12:43:11;97135.09;;;25.57;43.20
13867;BME280;7003;46.982;15.248;2023-05-28T12:45:45;97140.78;;;25.99;42.76
13867;BME280;7003;46.982;15.248;2023-05-28T12:48:16;97134.53;;;26.47;38.25
13867;BME280;7003;46.982;15.248;2023-05-28T12:50:45;97126.97;;;26.38;42.33
13867;BME280;7003;46.982;15.248;2023-05-28T12:53:13;97128.63;;;27.06;41.96
13867;BME280;7003;46.982;15.248;2023-05-28T12:55:40;97128.50;;;26.23;42.36
13867;BME280;7003;46.982;15.248;2023-05-28T12:58:08;97125.06;;;24.59;44.93
13867;BME280;7003;46.982;15.248;2023-05-28T13:00:37;97130.03;;;23.94;45.76
13867;BME280;7003;46.982;15.248;2023-05-28T13:03:06;97124.28;;;24.39;46.63
13867;BME280;7003;46.982;15.248;2023-05-28T13:05:34;97122.00;;;25.52;47.94
13867;BME280;7003;46.982;15.248;2023-05-28T13:08:01;97114.03;;;25.78;44.01
13867;BME280;7003;46.982;15.248;2023-05-28T13:10:29;97115.69;;;25.39;45.17